Terminal Aerodrome Forecast
Issued by NWS Grand Forks, ND

Home | Current Version | Previous Version | Text Only | Print | Product List | Glossary On
Versions: 1 2 3 4 5 6 7 8 9 10 11 12 13 14
000
FTUS43 KFGF 270531
TAFFAR
TAF
KFAR 270531Z 2706/2806 16006KT P6SM OVC040
     FM270800 09004KT P6SM OVC035
     FM280000 02008KT P6SM BKN070
     FM280500 02010KT P6SM BKN020=

USA.gov is the U.S. government's official web portal to all federal, state and local government web resources and services.